createdAt,value
2022-09-13T00:01:10.925Z,4.85
2022-09-13T00:03:37.802Z,2.00
2022-09-13T00:06:20.274Z,5.97
2022-09-13T00:08:47.864Z,3.28
2022-09-13T00:11:16.638Z,2.08
2022-09-13T00:13:43.323Z,1.95
2022-09-13T00:16:15.566Z,2.15
2022-09-13T00:18:43.040Z,2.97
2022-09-13T00:21:14.248Z,4.13
2022-09-13T00:23:44.454Z,2.42
2022-09-13T00:26:14.663Z,3.33
2022-09-13T00:28:41.793Z,4.72
2022-09-13T00:31:10.255Z,5.63
2022-09-13T00:33:38.050Z,4.20
2022-09-13T00:36:07.614Z,1.63
2022-09-13T00:38:39.263Z,1.42
2022-09-13T00:41:08.299Z,1.20
2022-09-13T00:44:03.833Z,3.47
2022-09-13T00:46:53.405Z,2.17
2022-09-13T00:49:36.083Z,1.75
2022-09-13T00:52:08.627Z,3.20
2022-09-13T00:54:48.266Z,2.40
2022-09-13T00:57:17.453Z,2.67
2022-09-13T01:00:15.095Z,2.67
2022-09-13T01:02:50.197Z,2.28
2022-09-13T01:05:20.958Z,2.53
2022-09-13T01:07:47.887Z,1.75
2022-09-13T01:10:14.894Z,3.70
2022-09-13T01:12:51.457Z,2.28
2022-09-13T01:15:18.059Z,1.98
2022-09-13T01:17:45.642Z,5.57
2022-09-13T01:20:14.133Z,2.35
2022-09-13T01:22:55.884Z,1.25
2022-09-13T01:25:39.076Z,1.23
2022-09-13T01:28:33.295Z,2.88
2022-09-13T01:31:15.015Z,2.78
2022-09-13T01:34:23.684Z,1.63
2022-09-13T01:37:02.325Z,3.47
2022-09-13T01:39:47.899Z,1.63
2022-09-13T01:42:51.788Z,1.75
2022-09-13T01:45:36.958Z,0.90
2022-09-13T01:48:39.358Z,2.10
2022-09-13T01:51:32.710Z,1.30
2022-09-13T01:54:15.625Z,1.95
2022-09-13T01:56:54.975Z,3.65
2022-09-13T01:59:37.054Z,2.35
2022-09-13T02:02:19.205Z,4.00
2022-09-13T02:04:54.433Z,1.23
2022-09-13T02:07:42.375Z,1.63
2022-09-13T02:10:15.559Z,2.25
2022-09-13T02:15:28.288Z,0.70
2022-09-13T02:18:06.615Z,0.75
2022-09-13T02:20:41.809Z,0.70
2022-09-13T02:23:15.487Z,1.67
2022-09-13T02:25:44.883Z,0.80
2022-09-13T02:28:15.006Z,0.95
2022-09-13T02:30:46.914Z,2.67
2022-09-13T02:33:23.406Z,2.15
2022-09-13T02:36:00.143Z,0.93
2022-09-13T02:38:59.863Z,1.75
2022-09-13T02:41:43.718Z,1.02
2022-09-13T02:44:24.399Z,1.70
2022-09-13T02:46:59.521Z,1.85
2022-09-13T02:49:51.681Z,2.08
2022-09-13T02:52:42.723Z,1.38
2022-09-13T02:55:35.326Z,3.80
2022-09-13T02:58:26.991Z,1.73
2022-09-13T03:00:55.952Z,1.05
2022-09-13T03:03:24.177Z,1.60
2022-09-13T03:05:50.912Z,3.22
2022-09-13T03:08:19.078Z,1.20
2022-09-13T03:10:45.775Z,7.53
2022-09-13T03:13:21.498Z,0.70
2022-09-13T03:16:06.120Z,1.27
2022-09-13T03:18:48.045Z,1.98
2022-09-13T03:21:26.979Z,1.08
2022-09-13T03:23:53.601Z,2.47
2022-09-13T03:26:36.671Z,3.30
2022-09-13T03:29:03.248Z,1.65
2022-09-13T03:31:49.028Z,1.38
2022-09-13T03:34:34.993Z,1.25
2022-09-13T03:37:39.387Z,1.40
2022-09-13T03:40:13.683Z,0.90
2022-09-13T03:42:48.208Z,0.68
2022-09-13T03:45:19.054Z,0.75
2022-09-13T03:47:48.570Z,1.45
2022-09-13T03:50:20.727Z,2.13
2022-09-13T03:52:51.919Z,2.28
2022-09-13T03:55:22.349Z,3.45
2022-09-13T03:57:49.062Z,3.60
2022-09-13T04:00:18.266Z,1.45
2022-09-13T04:02:45.033Z,1.85
2022-09-13T04:05:11.711Z,2.47
2022-09-13T04:07:38.326Z,1.80
2022-09-13T04:10:05.427Z,1.33
2022-09-13T04:12:32.402Z,1.75
2022-09-13T04:14:59.110Z,1.90
2022-09-13T04:17:25.753Z,1.23
2022-09-13T04:19:52.387Z,1.95
2022-09-13T04:22:19.218Z,4.10
2022-09-13T04:24:46.226Z,1.38
2022-09-13T04:27:13.415Z,2.70
2022-09-13T04:29:40.133Z,0.88
2022-09-13T04:32:06.881Z,5.03
2022-09-13T04:34:33.595Z,1.45
2022-09-13T04:37:00.229Z,2.70
2022-09-13T04:39:26.854Z,1.02
2022-09-13T04:41:55.318Z,1.10
2022-09-13T04:44:23.192Z,3.40
2022-09-13T04:46:51.017Z,3.67
2022-09-13T04:49:18.586Z,2.10
2022-09-13T04:51:45.287Z,2.05
2022-09-13T04:54:15.677Z,2.80
2022-09-13T04:56:43.641Z,2.85
2022-09-13T04:59:11.244Z,1.77
2022-09-13T05:01:38.625Z,1.52
2022-09-13T05:04:06.534Z,0.85
2022-09-13T05:06:33.677Z,2.63
2022-09-13T05:09:00.397Z,1.42
2022-09-13T05:11:28.866Z,0.60
2022-09-13T05:13:59.016Z,2.58
2022-09-13T05:16:30.914Z,1.25
2022-09-13T05:18:58.452Z,1.08
2022-09-13T05:21:25.672Z,1.42
2022-09-13T05:23:54.169Z,2.15
2022-09-13T05:26:22.887Z,1.20
2022-09-13T05:28:50.077Z,1.33
2022-09-13T05:31:26.166Z,2.08
2022-09-13T05:33:58.890Z,0.70
2022-09-13T05:36:26.556Z,0.70
2022-09-13T05:39:18.619Z,1.45
2022-09-13T05:41:42.271Z,2.15
2022-09-13T05:44:13.226Z,2.05
2022-09-13T05:46:41.534Z,2.17
2022-09-13T05:49:08.275Z,1.10
2022-09-13T05:51:35.047Z,0.63
2022-09-13T05:54:01.785Z,1.52
2022-09-13T05:56:30.280Z,3.40
2022-09-13T05:58:57.251Z,0.63
2022-09-13T06:01:26.717Z,2.20
2022-09-13T06:03:56.108Z,1.30
2022-09-13T06:06:24.204Z,0.80
2022-09-13T06:08:55.708Z,1.40
2022-09-13T06:11:23.913Z,2.97
2022-09-13T06:13:50.909Z,0.85
2022-09-13T06:16:17.843Z,1.77
2022-09-13T06:18:44.746Z,4.38
2022-09-13T06:21:18.431Z,1.73
2022-09-13T06:23:46.928Z,4.50
2022-09-13T06:26:15.753Z,1.40
2022-09-13T06:28:43.348Z,1.73
2022-09-13T06:31:12.845Z,2.70
2022-09-13T06:33:41.954Z,1.95
2022-09-13T06:36:20.437Z,3.28
2022-09-13T06:38:51.464Z,2.40
2022-09-13T06:41:23.507Z,2.70
2022-09-13T06:43:55.593Z,2.72
2022-09-13T06:46:25.090Z,2.67
2022-09-13T06:48:52.936Z,1.63
2022-09-13T06:51:24.958Z,1.20
2022-09-13T06:53:53.328Z,3.20
2022-09-13T06:56:23.168Z,1.77
2022-09-13T06:58:52.831Z,3.00
2022-09-13T07:01:22.467Z,3.90
2022-09-13T07:03:54.688Z,4.13
2022-09-13T07:06:23.674Z,3.25
2022-09-13T07:08:52.171Z,4.18
2022-09-13T07:11:21.675Z,2.30
2022-09-13T07:13:59.104Z,4.53
2022-09-13T07:16:28.205Z,1.52
2022-09-13T07:19:06.311Z,2.45
2022-09-13T07:21:34.753Z,3.85
2022-09-13T07:24:02.103Z,2.63
2022-09-13T07:26:29.088Z,2.58
2022-09-13T07:29:00.322Z,4.85
2022-09-13T07:31:33.282Z,1.20
2022-09-13T07:34:02.109Z,2.85
2022-09-13T07:36:30.985Z,4.35
2022-09-13T07:38:59.017Z,3.95
2022-09-13T07:41:27.590Z,2.13
2022-09-13T07:43:54.664Z,4.25
2022-09-13T07:46:26.945Z,5.05
2022-09-13T07:48:56.174Z,3.77
2022-09-13T07:51:27.780Z,3.40
2022-09-13T07:54:00.618Z,3.65
2022-09-13T07:56:32.432Z,2.85
2022-09-13T07:59:01.142Z,5.65
2022-09-13T08:01:30.407Z,5.43
2022-09-13T08:03:59.444Z,2.50
2022-09-13T08:06:28.032Z,4.55
2022-09-13T08:08:55.468Z,6.68
2022-09-13T08:11:28.653Z,3.58
2022-09-13T08:13:55.353Z,2.45
2022-09-13T08:16:24.572Z,5.18
2022-09-13T08:18:53.421Z,4.25
2022-09-13T08:21:20.999Z,2.90
2022-09-13T08:23:47.911Z,3.22
2022-09-13T08:26:14.992Z,3.60
2022-09-13T08:28:44.984Z,2.75
2022-09-13T08:31:18.395Z,3.60
2022-09-13T08:33:47.109Z,4.13
2022-09-13T08:36:15.119Z,2.08
2022-09-13T08:38:58.088Z,3.53
2022-09-13T08:41:45.642Z,4.68
2022-09-13T08:44:27.619Z,3.17
2022-09-13T08:47:03.697Z,4.45
2022-09-13T08:49:32.464Z,2.47
2022-09-13T08:52:05.632Z,7.60
2022-09-13T08:54:33.038Z,3.38
2022-09-13T08:57:26.903Z,1.73
2022-09-13T09:00:15.890Z,5.88
2022-09-13T09:03:19.988Z,5.50
2022-09-13T09:05:49.568Z,4.63
2022-09-13T09:08:23.011Z,5.88
2022-09-13T09:10:53.378Z,7.38
2022-09-13T09:13:54.533Z,3.22
2022-09-13T09:16:33.652Z,6.13
2022-09-13T09:19:12.990Z,4.25
2022-09-13T09:21:40.829Z,4.97
2022-09-13T09:24:16.410Z,4.22
2022-09-13T09:26:43.177Z,4.93
2022-09-13T09:29:25.151Z,3.95
2022-09-13T09:32:14.723Z,4.97
2022-09-13T09:34:48.561Z,5.28
2022-09-13T09:37:26.946Z,6.10
2022-09-13T09:39:56.331Z,5.25
2022-09-13T09:42:28.670Z,5.90
2022-09-13T09:45:04.901Z,1.30
2022-09-13T09:47:44.628Z,3.47
2022-09-13T09:50:19.140Z,3.42
2022-09-13T09:53:04.216Z,4.85
2022-09-13T09:55:35.170Z,3.63
2022-09-13T09:58:06.417Z,4.63
2022-09-13T10:00:50.718Z,3.88
2022-09-13T10:03:25.178Z,5.07
2022-09-13T10:05:51.865Z,3.20
2022-09-13T10:08:34.281Z,3.38
2022-09-13T10:11:02.133Z,6.20
2022-09-13T10:13:32.001Z,4.82
2022-09-13T10:16:23.575Z,8.43
2022-09-13T10:18:50.317Z,4.78
2022-09-13T10:21:19.946Z,5.30
2022-09-13T10:23:50.998Z,4.60
2022-09-13T10:26:26.737Z,5.88
2022-09-13T10:29:03.303Z,4.05
2022-09-13T10:31:34.682Z,3.22
2022-09-13T10:34:05.175Z,6.28
2022-09-13T10:36:51.610Z,7.22
2022-09-13T10:39:21.511Z,3.55
2022-09-13T10:42:01.571Z,5.20
2022-09-13T10:44:40.840Z,2.45
2022-09-13T10:47:13.513Z,4.97
2022-09-13T10:49:48.287Z,6.30
2022-09-13T10:52:32.353Z,3.45
2022-09-13T10:55:18.626Z,6.70
2022-09-13T10:57:49.661Z,3.47
2022-09-13T11:00:26.671Z,2.70
2022-09-13T11:03:29.564Z,6.00
2022-09-13T11:06:37.772Z,5.93
2022-09-13T11:09:29.414Z,5.93
2022-09-13T11:12:38.175Z,5.07
2022-09-13T11:15:20.109Z,8.55
2022-09-13T11:18:22.120Z,3.45
2022-09-13T11:21:35.537Z,2.47
2022-09-13T11:24:20.394Z,5.22
2022-09-13T11:26:59.390Z,4.25
2022-09-13T11:29:38.407Z,2.83
2022-09-13T11:32:33.003Z,2.67
2022-09-13T11:35:57.027Z,3.63
2022-09-13T11:38:49.775Z,5.47
2022-09-13T11:42:00.989Z,3.47
2022-09-13T11:45:00.139Z,4.82
2022-09-13T11:47:55.578Z,5.30
2022-09-13T11:50:31.867Z,4.47
2022-09-13T11:53:17.787Z,5.93
2022-09-13T11:55:54.507Z,6.95
2022-09-13T11:58:31.871Z,5.15
2022-09-13T12:01:07.225Z,3.80
2022-09-13T12:03:59.578Z,3.05
2022-09-13T12:06:33.977Z,4.75
2022-09-13T12:09:11.356Z,5.82
2022-09-13T12:11:53.993Z,3.13
2022-09-13T12:14:25.871Z,4.22
2022-09-13T12:17:04.619Z,8.63
2022-09-13T12:19:46.617Z,4.97
2022-09-13T12:22:14.461Z,3.28
2022-09-13T12:24:51.317Z,4.43
2022-09-13T12:27:47.604Z,4.00
2022-09-13T12:30:37.722Z,4.55
2022-09-13T12:33:06.718Z,3.00
2022-09-13T12:35:42.778Z,5.50
2022-09-13T12:38:40.633Z,4.65
2022-09-13T12:41:19.499Z,2.58
2022-09-13T12:44:05.006Z,3.90
2022-09-13T12:46:42.658Z,4.00
2022-09-13T12:49:44.778Z,3.25
2022-09-13T12:52:39.183Z,3.65
2022-09-13T12:55:45.968Z,6.47
2022-09-13T12:58:41.860Z,3.38
2022-09-13T13:01:17.840Z,4.43
2022-09-13T13:03:56.593Z,2.75
2022-09-13T13:06:49.443Z,2.95
2022-09-13T13:09:42.547Z,4.50
2022-09-13T13:12:11.447Z,5.90
2022-09-13T13:14:41.034Z,4.20
2022-09-13T13:17:47.754Z,2.17
2022-09-13T13:21:05.053Z,2.83
2022-09-13T13:23:39.197Z,3.65
2022-09-13T13:26:20.998Z,4.82
2022-09-13T13:28:47.891Z,2.80
2022-09-13T13:31:30.057Z,3.38
2022-09-13T13:34:22.821Z,3.03
2022-09-13T13:36:54.448Z,4.03
2022-09-13T13:39:24.464Z,3.40
2022-09-13T13:41:58.245Z,5.45
2022-09-13T13:44:24.933Z,3.38
2022-09-13T13:47:14.789Z,2.47
2022-09-13T13:49:41.493Z,1.73
2022-09-13T13:52:10.971Z,3.97
2022-09-13T13:54:40.727Z,3.65
2022-09-13T13:57:26.319Z,3.80
2022-09-13T14:00:21.005Z,2.72
2022-09-13T14:02:50.620Z,4.22
2022-09-13T14:05:37.480Z,5.05
2022-09-13T14:08:34.370Z,2.95
2022-09-13T14:11:37.155Z,1.83
2022-09-13T14:14:23.669Z,2.55
2022-09-13T14:17:24.599Z,3.00
2022-09-13T14:19:55.660Z,1.90
2022-09-13T14:22:27.540Z,5.20
2022-09-13T14:24:57.073Z,3.45
2022-09-13T14:27:29.536Z,3.53
2022-09-13T14:30:03.626Z,3.85
2022-09-13T14:32:42.005Z,4.25
2022-09-13T14:35:24.793Z,2.45
2022-09-13T14:37:52.405Z,3.55
2022-09-13T14:40:29.609Z,3.70
2022-09-13T14:42:56.766Z,3.83
2022-09-13T14:45:36.611Z,4.53
2022-09-13T14:48:19.343Z,4.30
2022-09-13T14:50:50.851Z,5.72
2022-09-13T14:53:36.578Z,3.40
2022-09-13T14:56:07.764Z,4.47
2022-09-13T14:58:44.192Z,7.05
2022-09-13T15:01:15.391Z,3.78
2022-09-13T15:03:44.618Z,5.93
2022-09-13T15:06:41.369Z,4.20
2022-09-13T15:09:11.041Z,4.22
2022-09-13T15:11:58.162Z,5.45
2022-09-13T15:14:28.324Z,5.15
2022-09-13T15:17:09.926Z,3.45
2022-09-13T15:19:47.597Z,6.28
2022-09-13T15:22:29.876Z,6.13
2022-09-13T15:24:59.108Z,2.72
2022-09-13T15:27:32.481Z,4.05
2022-09-13T15:30:03.122Z,6.72
2022-09-13T15:32:40.027Z,3.85
2022-09-13T15:35:27.187Z,5.82
2022-09-13T15:38:01.939Z,10.35
2022-09-13T15:40:31.147Z,2.88
2022-09-13T15:42:58.224Z,6.38
2022-09-13T15:45:24.958Z,3.05
2022-09-13T15:47:53.042Z,6.22
2022-09-13T15:50:36.377Z,4.82
2022-09-13T15:55:31.716Z,6.40
2022-09-13T15:57:58.576Z,8.50
2022-09-13T16:00:29.133Z,4.22
2022-09-13T16:02:56.938Z,6.07
2022-09-13T16:05:23.840Z,5.47
2022-09-13T16:07:50.592Z,5.68
2022-09-13T16:10:20.292Z,4.13
2022-09-13T16:12:47.183Z,7.20
2022-09-13T16:15:14.590Z,6.15
2022-09-13T16:17:41.969Z,7.32
2022-09-13T16:20:13.136Z,4.57
2022-09-13T16:22:40.293Z,6.78
2022-09-13T16:25:07.651Z,5.70
2022-09-13T16:27:34.419Z,6.65
2022-09-13T16:30:01.562Z,5.40
2022-09-13T16:32:28.270Z,4.30
2022-09-13T16:34:55.070Z,7.10
2022-09-13T16:37:22.154Z,6.20
2022-09-13T16:39:49.009Z,4.95
2022-09-13T16:42:20.185Z,4.68
2022-09-13T16:44:46.926Z,3.65
2022-09-13T16:47:13.784Z,4.85
2022-09-13T16:49:40.538Z,6.07
2022-09-13T16:52:08.014Z,10.02
2022-09-13T16:54:35.260Z,7.90
2022-09-13T16:57:04.104Z,3.90
2022-09-13T16:59:32.350Z,6.78
2022-09-13T17:01:59.570Z,8.10
2022-09-13T17:04:26.387Z,6.30
2022-09-13T17:06:53.252Z,6.05
2022-09-13T17:09:22.515Z,2.05
2022-09-13T17:11:49.600Z,4.80
2022-09-13T17:14:17.962Z,5.57
2022-09-13T17:16:54.084Z,6.90
2022-09-13T17:19:27.889Z,6.25
2022-09-13T17:21:57.590Z,5.25
2022-09-13T17:24:26.043Z,5.05
2022-09-13T17:26:53.200Z,6.85
2022-09-13T17:29:20.177Z,9.07
2022-09-13T17:31:47.197Z,6.90
2022-09-13T17:34:14.115Z,5.95
2022-09-13T17:36:43.344Z,4.28
2022-09-13T17:39:10.643Z,4.13
2022-09-13T17:41:37.992Z,4.50
2022-09-13T17:44:06.217Z,4.57
2022-09-13T17:46:34.346Z,6.55
2022-09-13T17:49:02.437Z,4.75
2022-09-13T17:51:32.044Z,6.80
2022-09-13T17:56:44.066Z,6.72
2022-09-13T17:59:19.504Z,7.65
2022-09-13T18:01:48.361Z,7.18
2022-09-13T18:04:17.091Z,9.13
2022-09-13T18:06:44.578Z,5.82
2022-09-13T18:09:12.713Z,7.70
2022-09-13T18:11:39.897Z,6.35
2022-09-13T18:14:07.885Z,5.15
2022-09-13T18:16:34.652Z,3.90
2022-09-13T18:19:01.730Z,5.93
2022-09-13T18:21:28.756Z,8.68
2022-09-13T18:23:59.787Z,2.53
2022-09-13T18:26:27.792Z,7.35
2022-09-13T18:29:01.893Z,4.10
2022-09-13T18:31:30.153Z,3.75
2022-09-13T18:34:01.089Z,8.32
2022-09-13T18:36:29.665Z,6.03
2022-09-13T18:38:57.379Z,6.03
2022-09-13T18:41:30.059Z,5.00
2022-09-13T18:43:57.210Z,5.60
2022-09-13T18:46:26.156Z,7.95
2022-09-13T18:48:54.713Z,5.90
2022-09-13T18:51:24.240Z,9.45
2022-09-13T18:53:51.924Z,9.02
2022-09-13T18:56:21.207Z,11.75
2022-09-13T18:58:48.206Z,9.88
2022-09-13T19:01:25.102Z,11.25
2022-09-13T19:03:56.108Z,6.63
2022-09-13T19:06:41.548Z,7.18
2022-09-13T19:09:09.197Z,8.10
2022-09-13T19:11:49.275Z,6.82
2022-09-13T19:14:21.751Z,7.75
2022-09-13T19:16:48.894Z,8.57
2022-09-13T19:19:15.769Z,9.15
2022-09-13T19:21:43.230Z,9.85
2022-09-13T19:24:17.788Z,5.18
2022-09-13T19:26:47.037Z,6.53
2022-09-13T19:29:17.487Z,9.68
2022-09-13T19:31:49.718Z,8.70
2022-09-13T19:34:18.997Z,7.45
2022-09-13T19:36:45.999Z,6.97
2022-09-13T19:39:13.628Z,9.85
2022-09-13T19:41:41.546Z,8.57
2022-09-13T19:44:09.605Z,7.88
2022-09-13T19:46:38.888Z,10.77
2022-09-13T19:49:06.871Z,8.93
2022-09-13T19:51:38.642Z,10.85
2022-09-13T19:54:06.624Z,9.80
2022-09-13T19:56:38.826Z,10.95
2022-09-13T19:59:07.611Z,13.87
2022-09-13T20:01:37.096Z,16.35
2022-09-13T20:04:10.216Z,9.60
2022-09-13T20:06:40.030Z,9.18
2022-09-13T20:09:09.114Z,8.32
2022-09-13T20:11:41.468Z,8.52
2022-09-13T20:14:09.926Z,12.32
2022-09-13T20:16:38.530Z,6.78
2022-09-13T20:19:23.648Z,13.80
2022-09-13T20:21:53.058Z,8.43
2022-09-13T20:24:20.244Z,11.63
2022-09-13T20:26:47.879Z,9.88
2022-09-13T20:29:15.070Z,10.68
2022-09-13T20:31:41.765Z,12.70
2022-09-13T20:34:11.974Z,9.52
2022-09-13T20:36:38.581Z,18.02
2022-09-13T20:39:06.476Z,11.40
2022-09-13T20:41:33.280Z,7.82
2022-09-13T20:44:01.096Z,8.70
2022-09-13T20:46:29.629Z,11.77
2022-09-13T20:48:56.357Z,10.48
2022-09-13T20:51:25.512Z,9.82
2022-09-13T20:54:00.628Z,7.47
2022-09-13T20:56:28.920Z,10.85
2022-09-13T20:58:58.414Z,7.22
2022-09-13T21:01:27.054Z,15.15
2022-09-13T21:03:55.172Z,9.07
2022-09-13T21:06:24.211Z,8.20
2022-09-13T21:08:52.420Z,12.30
2022-09-13T21:11:22.219Z,7.93
2022-09-13T21:13:54.205Z,10.00
2022-09-13T21:16:24.162Z,9.57
2022-09-13T21:18:51.678Z,9.77
2022-09-13T21:21:23.871Z,10.20
2022-09-13T21:23:51.254Z,7.95
2022-09-13T21:26:20.456Z,10.50
2022-09-13T21:28:47.567Z,11.27
2022-09-13T21:31:21.873Z,10.75
2022-09-13T21:33:53.180Z,10.07
2022-09-13T21:36:19.837Z,6.25
2022-09-13T21:38:46.739Z,10.40
2022-09-13T21:41:16.216Z,6.05
2022-09-13T21:43:43.646Z,8.88
2022-09-13T21:46:16.588Z,11.25
2022-09-13T21:51:17.359Z,7.13
2022-09-13T21:53:45.382Z,13.60
2022-09-13T21:56:14.818Z,8.13
2022-09-13T21:58:41.543Z,8.00
2022-09-13T22:01:13.232Z,9.82
2022-09-13T22:03:42.113Z,14.35
2022-09-13T22:06:11.671Z,9.57
2022-09-13T22:08:40.650Z,12.05
2022-09-13T22:11:22.329Z,6.85
2022-09-13T22:13:49.679Z,6.65
2022-09-13T22:16:27.314Z,6.43
2022-09-13T22:18:56.479Z,4.85
2022-09-13T22:21:26.605Z,8.75
2022-09-13T22:23:54.009Z,7.15
2022-09-13T22:26:28.335Z,6.70
2022-09-13T22:28:56.506Z,9.35
2022-09-13T22:31:26.159Z,6.90
2022-09-13T22:33:54.546Z,9.38
2022-09-13T22:36:21.204Z,5.82
2022-09-13T22:38:52.000Z,8.15
2022-09-13T22:41:27.041Z,8.75
2022-09-13T22:43:54.403Z,5.50
2022-09-13T22:46:24.083Z,9.48
2022-09-13T22:48:52.645Z,8.27
2022-09-13T22:51:19.477Z,6.90
2022-09-13T22:53:48.553Z,7.97
2022-09-13T22:56:21.530Z,8.25
2022-09-13T22:58:48.738Z,6.47
2022-09-13T23:01:18.640Z,7.32
2022-09-13T23:03:46.985Z,7.68
2022-09-13T23:06:16.378Z,4.30
2022-09-13T23:08:43.020Z,5.55
2022-09-13T23:11:17.878Z,6.22
2022-09-13T23:13:46.240Z,8.30
2022-09-13T23:16:27.574Z,5.38
2022-09-13T23:18:56.093Z,6.40
2022-09-13T23:21:29.411Z,7.43
2022-09-13T23:26:23.980Z,8.68
2022-09-13T23:28:57.283Z,6.63
2022-09-13T23:34:02.015Z,5.63
2022-09-13T23:38:58.371Z,5.90
2022-09-13T23:41:26.243Z,7.65
2022-09-13T23:43:53.771Z,5.35
2022-09-13T23:46:21.156Z,7.60
2022-09-13T23:48:48.487Z,5.28
2022-09-13T23:51:18.147Z,8.23
2022-09-13T23:53:45.157Z,6.35
2022-09-13T23:56:13.608Z,6.60
2022-09-13T23:58:41.050Z,6.22
